sensor_id;sensor_type;location;lat;lon;timestamp;pressure;altitude;pressure_sealevel;temperature;humidity
17593;BME280;8915;51.760;14.300;2022-09-09T00:02:15;100338.75;;;12.77;100.00
17593;BME280;8915;51.760;14.300;2022-09-09T00:04:58;100348.31;;;12.78;100.00
17593;BME280;8915;51.760;14.300;2022-09-09T00:07:35;100354.34;;;12.80;100.00
17593;BME280;8915;51.760;14.300;2022-09-09T00:10:14;100348.44;;;12.75;100.00
17593;BME280;8915;51.760;14.300;2022-09-09T00:12:51;100348.50;;;12.73;100.00
17593;BME280;8915;51.760;14.300;2022-09-09T00:15:24;100353.94;;;12.68;100.00
17593;BME280;8915;51.760;14.300;2022-09-09T00:17:56;100346.13;;;12.67;100.00
17593;BME280;8915;51.760;14.300;2022-09-09T00:20:30;100346.25;;;12.64;100.00
17593;BME280;8915;51.760;14.300;2022-09-09T00:23:03;100341.81;;;12.66;100.00
17593;BME280;8915;51.760;14.300;2022-09-09T00:25:37;100332.50;;;12.59;100.00
17593;BME280;8915;51.760;14.300;2022-09-09T00:28:15;100336.09;;;12.56;100.00
17593;BME280;8915;51.760;14.300;2022-09-09T00:30:44;100339.59;;;12.55;100.00
17593;BME280;8915;51.760;14.300;2022-09-09T00:33:17;100336.88;;;12.58;100.00
17593;BME280;8915;51.760;14.300;2022-09-09T00:35:49;100334.38;;;12.55;100.00
17593;BME280;8915;51.760;14.300;2022-09-09T00:38:20;100338.78;;;12.55;100.00
17593;BME280;8915;51.760;14.300;2022-09-09T00:40:52;100334.63;;;12.49;100.00
17593;BME280;8915;51.760;14.300;2022-09-09T00:43:30;100336.31;;;12.50;100.00
17593;BME280;8915;51.760;14.300;2022-09-09T00:46:10;100328.47;;;12.50;100.00
17593;BME280;8915;51.760;14.300;2022-09-09T00:48:47;100335.59;;;12.46;100.00
17593;BME280;8915;51.760;14.300;2022-09-09T00:51:26;100332.19;;;12.44;100.00
17593;BME280;8915;51.760;14.300;2022-09-09T00:54:24;100341.00;;;12.42;100.00
17593;BME280;8915;51.760;14.300;2022-09-09T00:57:06;100334.19;;;12.38;100.00
17593;BME280;8915;51.760;14.300;2022-09-09T00:59:46;100343.75;;;12.39;100.00
17593;BME280;8915;51.760;14.300;2022-09-09T01:02:21;100336.78;;;12.38;100.00
17593;BME280;8915;51.760;14.300;2022-09-09T01:04:53;100347.13;;;12.41;100.00
17593;BME280;8915;51.760;14.300;2022-09-09T01:07:23;100348.09;;;12.38;100.00
17593;BME280;8915;51.760;14.300;2022-09-09T01:09:55;100349.84;;;12.38;100.00
17593;BME280;8915;51.760;14.300;2022-09-09T01:12:34;100347.31;;;12.36;100.00
17593;BME280;8915;51.760;14.300;2022-09-09T01:15:10;100352.53;;;12.36;100.00
17593;BME280;8915;51.760;14.300;2022-09-09T01:17:58;100363.00;;;12.36;100.00
17593;BME280;8915;51.760;14.300;2022-09-09T01:20:35;100362.94;;;12.38;100.00
17593;BME280;8915;51.760;14.300;2022-09-09T01:23:19;100362.19;;;12.34;100.00
17593;BME280;8915;51.760;14.300;2022-09-09T01:26:19;100359.84;;;12.28;100.00
17593;BME280;8915;51.760;14.300;2022-09-09T01:28:50;100371.25;;;12.25;100.00
17593;BME280;8915;51.760;14.300;2022-09-09T01:31:29;100372.22;;;12.23;100.00
17593;BME280;8915;51.760;14.300;2022-09-09T01:33:58;100371.34;;;12.22;100.00
17593;BME280;8915;51.760;14.300;2022-09-09T01:36:31;100365.38;;;12.19;100.00
17593;BME280;8915;51.760;14.300;2022-09-09T01:39:00;100368.69;;;12.24;100.00
17593;BME280;8915;51.760;14.300;2022-09-09T01:41:29;100361.63;;;12.26;100.00
17593;BME280;8915;51.760;14.300;2022-09-09T01:44:02;100365.22;;;12.23;100.00
17593;BME280;8915;51.760;14.300;2022-09-09T01:46:32;100361.75;;;12.23;100.00
17593;BME280;8915;51.760;14.300;2022-09-09T01:49:02;100352.19;;;12.22;100.00
17593;BME280;8915;51.760;14.300;2022-09-09T01:51:30;100356.59;;;12.21;100.00
17593;BME280;8915;51.760;14.300;2022-09-09T01:54:01;100361.81;;;12.21;100.00
17593;BME280;8915;51.760;14.300;2022-09-09T01:56:40;100352.19;;;12.22;100.00
17593;BME280;8915;51.760;14.300;2022-09-09T01:59:28;100358.22;;;12.24;100.00
17593;BME280;8915;51.760;14.300;2022-09-09T02:02:09;100351.41;;;12.20;100.00
17593;BME280;8915;51.760;14.300;2022-09-09T02:04:43;100359.19;;;12.21;100.00
17593;BME280;8915;51.760;14.300;2022-09-09T02:07:38;100354.13;;;12.17;100.00
17593;BME280;8915;51.760;14.300;2022-09-09T02:10:16;100359.47;;;12.13;100.00
17593;BME280;8915;51.760;14.300;2022-09-09T02:13:02;100366.69;;;12.07;100.00
17593;BME280;8915;51.760;14.300;2022-09-09T02:15:34;100364.97;;;12.06;100.00
17593;BME280;8915;51.760;14.300;2022-09-09T02:18:06;100369.38;;;12.05;100.00
17593;BME280;8915;51.760;14.300;2022-09-09T02:20:35;100361.47;;;12.07;100.00
17593;BME280;8915;51.760;14.300;2022-09-09T02:23:05;100370.25;;;12.04;100.00
17593;BME280;8915;51.760;14.300;2022-09-09T02:25:36;100367.88;;;11.98;100.00
17593;BME280;8915;51.760;14.300;2022-09-09T02:28:17;100372.13;;;12.01;100.00
17593;BME280;8915;51.760;14.300;2022-09-09T02:30:48;100366.84;;;12.02;100.00
17593;BME280;8915;51.760;14.300;2022-09-09T02:33:26;100363.28;;;12.05;100.00
17593;BME280;8915;51.760;14.300;2022-09-09T02:35:55;100364.97;;;12.06;100.00
17593;BME280;8915;51.760;14.300;2022-09-09T02:38:32;100365.13;;;12.01;100.00
17593;BME280;8915;51.760;14.300;2022-09-09T02:41:08;100367.00;;;11.98;100.00
17593;BME280;8915;51.760;14.300;2022-09-09T02:43:37;100359.25;;;11.96;100.00
17593;BME280;8915;51.760;14.300;2022-09-09T02:46:20;100364.66;;;11.90;100.00
17593;BME280;8915;51.760;14.300;2022-09-09T02:48:57;100362.91;;;11.90;100.00
17593;BME280;8915;51.760;14.300;2022-09-09T02:51:33;100361.19;;;11.91;100.00
17593;BME280;8915;51.760;14.300;2022-09-09T02:54:10;100370.75;;;11.90;100.00
17593;BME280;8915;51.760;14.300;2022-09-09T02:56:42;100362.19;;;11.85;100.00
17593;BME280;8915;51.760;14.300;2022-09-09T02:59:13;100370.13;;;11.84;100.00
17593;BME280;8915;51.760;14.300;2022-09-09T03:01:40;100367.50;;;11.84;100.00
17593;BME280;8915;51.760;14.300;2022-09-09T03:04:09;100374.47;;;11.83;100.00
17593;BME280;8915;51.760;14.300;2022-09-09T03:06:36;100374.66;;;11.79;100.00
17593;BME280;8915;51.760;14.300;2022-09-09T03:09:14;100372.06;;;11.77;100.00
17593;BME280;8915;51.760;14.300;2022-09-09T03:11:41;100379.13;;;11.75;100.00
17593;BME280;8915;51.760;14.300;2022-09-09T03:14:08;100378.19;;;11.76;100.00
17593;BME280;8915;51.760;14.300;2022-09-09T03:16:38;100383.59;;;11.71;100.00
17593;BME280;8915;51.760;14.300;2022-09-09T03:19:06;100380.38;;;11.63;100.00
17593;BME280;8915;51.760;14.300;2022-09-09T03:21:33;100378.72;;;11.61;100.00
17593;BME280;8915;51.760;14.300;2022-09-09T03:24:02;100377.09;;;11.58;100.00
17593;BME280;8915;51.760;14.300;2022-09-09T03:26:29;100381.22;;;11.64;100.00
17593;BME280;8915;51.760;14.300;2022-09-09T03:28:58;100381.47;;;11.58;100.00
17593;BME280;8915;51.760;14.300;2022-09-09T03:31:26;100381.28;;;11.62;100.00
17593;BME280;8915;51.760;14.300;2022-09-09T03:33:57;100390.19;;;11.56;100.00
17593;BME280;8915;51.760;14.300;2022-09-09T03:36:27;100382.16;;;11.63;100.00
17593;BME280;8915;51.760;14.300;2022-09-09T03:38:55;100384.16;;;11.54;100.00
17593;BME280;8915;51.760;14.300;2022-09-09T03:41:24;100374.53;;;11.56;100.00
17593;BME280;8915;51.760;14.300;2022-09-09T03:43:52;100377.22;;;11.53;100.00
17593;BME280;8915;51.760;14.300;2022-09-09T03:46:23;100374.53;;;11.56;100.00
17593;BME280;8915;51.760;14.300;2022-09-09T03:48:52;100372.88;;;11.54;100.00
17593;BME280;8915;51.760;14.300;2022-09-09T03:51:23;100373.81;;;11.51;100.00
17593;BME280;8915;51.760;14.300;2022-09-09T03:53:50;100375.53;;;11.52;100.00
17593;BME280;8915;51.760;14.300;2022-09-09T03:56:18;100372.06;;;11.52;100.00
17593;BME280;8915;51.760;14.300;2022-09-09T03:58:47;100375.53;;;11.52;100.00
17593;BME280;8915;51.760;14.300;2022-09-09T04:01:14;100376.44;;;11.51;100.00
17593;BME280;8915;51.760;14.300;2022-09-09T04:03:43;100385.22;;;11.49;100.00
17593;BME280;8915;51.760;14.300;2022-09-09T04:06:12;100382.66;;;11.47;100.00
17593;BME280;8915;51.760;14.300;2022-09-09T04:08:44;100381.88;;;11.45;100.00
17593;BME280;8915;51.760;14.300;2022-09-09T04:11:14;100385.31;;;11.46;100.00
17593;BME280;8915;51.760;14.300;2022-09-09T04:13:43;100389.84;;;11.41;100.00
17593;BME280;8915;51.760;14.300;2022-09-09T04:16:12;100385.50;;;11.40;100.00
17593;BME280;8915;51.760;14.300;2022-09-09T04:18:41;100390.88;;;11.36;100.00
17593;BME280;8915;51.760;14.300;2022-09-09T04:21:09;100397.91;;;11.34;100.00
17593;BME280;8915;51.760;14.300;2022-09-09T04:23:38;100395.38;;;11.31;100.00
17593;BME280;8915;51.760;14.300;2022-09-09T04:26:07;100403.22;;;11.31;100.00
17593;BME280;8915;51.760;14.300;2022-09-09T04:28:36;100404.84;;;11.34;100.00
17593;BME280;8915;51.760;14.300;2022-09-09T04:31:09;100399.09;;;11.24;100.00
17593;BME280;8915;51.760;14.300;2022-09-09T04:33:39;100399.72;;;11.31;100.00
17593;BME280;8915;51.760;14.300;2022-09-09T04:36:07;100406.75;;;11.29;100.00
17593;BME280;8915;51.760;14.300;2022-09-09T04:38:35;100409.13;;;11.36;100.00
17593;BME280;8915;51.760;14.300;2022-09-09T04:41:03;100409.00;;;11.40;100.00
17593;BME280;8915;51.760;14.300;2022-09-09T04:43:34;100413.47;;;11.36;100.00
17593;BME280;8915;51.760;14.300;2022-09-09T04:46:05;100413.47;;;11.36;100.00
17593;BME280;8915;51.760;14.300;2022-09-09T04:48:32;100416.97;;;11.36;100.00
17593;BME280;8915;51.760;14.300;2022-09-09T04:51:02;100416.91;;;11.38;100.00
17593;BME280;8915;51.760;14.300;2022-09-09T04:53:31;100416.00;;;11.39;100.00
17593;BME280;8915;51.760;14.300;2022-09-09T04:56:04;100420.59;;;11.31;100.00
17593;BME280;8915;51.760;14.300;2022-09-09T04:58:37;100414.63;;;11.27;100.00
17593;BME280;8915;51.760;14.300;2022-09-09T05:01:07;100419.09;;;11.24;100.00
17593;BME280;8915;51.760;14.300;2022-09-09T05:03:36;100417.59;;;11.16;100.00
17593;BME280;8915;51.760;14.300;2022-09-09T05:06:06;100416.84;;;11.13;100.00
17593;BME280;8915;51.760;14.300;2022-09-09T05:08:36;100422.59;;;11.24;100.00
17593;BME280;8915;51.760;14.300;2022-09-09T05:11:03;100418.81;;;11.33;100.00
17593;BME280;8915;51.760;14.300;2022-09-09T05:13:30;100417.06;;;11.33;100.00
17593;BME280;8915;51.760;14.300;2022-09-09T05:16:01;100415.19;;;11.37;100.00
17593;BME280;8915;51.760;14.300;2022-09-09T05:18:28;100420.81;;;11.51;100.00
17593;BME280;8915;51.760;14.300;2022-09-09T05:21:00;100419.22;;;11.47;100.00
17593;BME280;8915;51.760;14.300;2022-09-09T05:23:29;100412.19;;;11.49;100.00
17593;BME280;8915;51.760;14.300;2022-09-09T05:25:57;100415.28;;;11.61;100.00
17593;BME280;8915;51.760;14.300;2022-09-09T05:28:26;100409.88;;;11.67;100.00
17593;BME280;8915;51.760;14.300;2022-09-09T05:30:57;100408.88;;;11.69;100.00
17593;BME280;8915;51.760;14.300;2022-09-09T05:33:26;100409.81;;;11.68;100.00
17593;BME280;8915;51.760;14.300;2022-09-09T05:35:57;100414.00;;;11.72;100.00
17593;BME280;8915;51.760;14.300;2022-09-09T05:38:25;100412.94;;;11.78;100.00
17593;BME280;8915;51.760;14.300;2022-09-09T05:40:52;100415.50;;;11.80;100.00
17593;BME280;8915;51.760;14.300;2022-09-09T05:43:19;100412.84;;;11.81;100.00
17593;BME280;8915;51.760;14.300;2022-09-09T05:45:46;100412.56;;;11.89;100.00
17593;BME280;8915;51.760;14.300;2022-09-09T05:48:14;100409.88;;;11.92;100.00
17593;BME280;8915;51.760;14.300;2022-09-09T05:50:43;100415.00;;;11.95;100.00
17593;BME280;8915;51.760;14.300;2022-09-09T05:53:11;100420.78;;;12.05;100.00
17593;BME280;8915;51.760;14.300;2022-09-09T05:55:38;100427.69;;;12.06;100.00
17593;BME280;8915;51.760;14.300;2022-09-09T05:58:05;100421.81;;;11.99;100.00
17593;BME280;8915;51.760;14.300;2022-09-09T06:00:32;100419.00;;;12.05;100.00
17593;BME280;8915;51.760;14.300;2022-09-09T06:02:59;100425.88;;;12.08;100.00
17593;BME280;8915;51.760;14.300;2022-09-09T06:05:26;100419.53;;;12.15;100.00
17593;BME280;8915;51.760;14.300;2022-09-09T06:07:55;100432.16;;;12.27;100.00
17593;BME280;8915;51.760;14.300;2022-09-09T06:10:23;100436.13;;;12.38;100.00
17593;BME280;8915;51.760;14.300;2022-09-09T06:12:52;100440.06;;;12.49;100.00
17593;BME280;8915;51.760;14.300;2022-09-09T06:15:20;100445.00;;;12.57;100.00
17593;BME280;8915;51.760;14.300;2022-09-09T06:17:47;100437.75;;;12.65;100.00
17593;BME280;8915;51.760;14.300;2022-09-09T06:20:20;100439.09;;;12.76;100.00
17593;BME280;8915;51.760;14.300;2022-09-09T06:22:48;100445.81;;;12.83;100.00
17593;BME280;8915;51.760;14.300;2022-09-09T06:25:16;100439.34;;;12.92;100.00
17593;BME280;8915;51.760;14.300;2022-09-09T06:27:48;100438.16;;;13.00;100.00
17593;BME280;8915;51.760;14.300;2022-09-09T06:30:15;100431.69;;;13.09;100.00
17593;BME280;8915;51.760;14.300;2022-09-09T06:32:43;100433.84;;;13.21;100.00
17593;BME280;8915;51.760;14.300;2022-09-09T06:35:09;100433.44;;;13.32;100.00
17593;BME280;8915;51.760;14.300;2022-09-09T06:37:36;100431.03;;;13.48;100.00
17593;BME280;8915;51.760;14.300;2022-09-09T06:40:04;100427.72;;;13.65;100.00
17593;BME280;8915;51.760;14.300;2022-09-09T06:42:32;100423.78;;;13.75;100.00
17593;BME280;8915;51.760;14.300;2022-09-09T06:45:20;100425.03;;;13.87;100.00
17593;BME280;8915;51.760;14.300;2022-09-09T06:47:54;100421.22;;;13.94;100.00
17593;BME280;8915;51.760;14.300;2022-09-09T06:50:21;100425.09;;;14.06;100.00
17593;BME280;8915;51.760;14.300;2022-09-09T06:52:49;100428.22;;;14.14;100.00
17593;BME280;8915;51.760;14.300;2022-09-09T06:55:15;100429.44;;;14.26;100.00
17593;BME280;8915;51.760;14.300;2022-09-09T06:57:44;100429.88;;;14.36;100.00
17593;BME280;8915;51.760;14.300;2022-09-09T07:00:16;100434.66;;;14.47;100.00
17593;BME280;8915;51.760;14.300;2022-09-09T07:02:43;100431.66;;;14.54;100.00
17593;BME280;8915;51.760;14.300;2022-09-09T07:05:11;100431.22;;;14.65;100.00
17593;BME280;8915;51.760;14.300;2022-09-09T07:07:40;100423.75;;;14.75;100.00
17593;BME280;8915;51.760;14.300;2022-09-09T07:10:08;100433.88;;;14.83;100.00
17593;BME280;8915;51.760;14.300;2022-09-09T07:12:36;100432.41;;;14.96;100.00
17593;BME280;8915;51.760;14.300;2022-09-09T07:15:05;100427.59;;;15.06;100.00
17593;BME280;8915;51.760;14.300;2022-09-09T07:17:32;100436.63;;;15.18;100.00
17593;BME280;8915;51.760;14.300;2022-09-09T07:19:59;100431.78;;;15.27;100.00
17593;BME280;8915;51.760;14.300;2022-09-09T07:22:27;100437.22;;;15.42;100.00
17593;BME280;8915;51.760;14.300;2022-09-09T07:24:53;100434.03;;;15.52;100.00
17593;BME280;8915;51.760;14.300;2022-09-09T07:27:20;100428.09;;;15.66;100.00
17593;BME280;8915;51.760;14.300;2022-09-09T07:29:47;100426.34;;;15.84;100.00
17593;BME280;8915;51.760;14.300;2022-09-09T07:32:15;100434.97;;;16.04;100.00
17593;BME280;8915;51.760;14.300;2022-09-09T07:34:42;100438.44;;;16.22;100.00
17593;BME280;8915;51.760;14.300;2022-09-09T07:37:09;100439.09;;;16.43;100.00
17593;BME280;8915;51.760;14.300;2022-09-09T07:39:39;100446.94;;;16.60;100.00
17593;BME280;8915;51.760;14.300;2022-09-09T07:42:06;100438.25;;;16.74;100.00
17593;BME280;8915;51.760;14.300;2022-09-09T07:44:35;100446.88;;;16.94;100.00
17593;BME280;8915;51.760;14.300;2022-09-09T07:47:07;100437.03;;;17.13;100.00
17593;BME280;8915;51.760;14.300;2022-09-09T07:49:39;100445.59;;;17.33;100.00
17593;BME280;8915;51.760;14.300;2022-09-09T07:52:07;100450.81;;;17.49;100.00
17593;BME280;8915;51.760;14.300;2022-09-09T07:54:34;100455.31;;;17.63;100.00
17593;BME280;8915;51.760;14.300;2022-09-09T07:57:04;100455.41;;;17.75;100.00
17593;BME280;8915;51.760;14.300;2022-09-09T07:59:32;100458.22;;;17.88;100.00
17593;BME280;8915;51.760;14.300;2022-09-09T08:02:00;100464.56;;;18.00;100.00
17593;BME280;8915;51.760;14.300;2022-09-09T08:04:30;100465.97;;;18.06;100.00
17593;BME280;8915;51.760;14.300;2022-09-09T08:07:00;100460.13;;;18.15;100.00
17593;BME280;8915;51.760;14.300;2022-09-09T08:09:31;100456.88;;;18.26;100.00
17593;BME280;8915;51.760;14.300;2022-09-09T08:12:15;100457.44;;;18.45;100.00
17593;BME280;8915;51.760;14.300;2022-09-09T08:14:41;100463.28;;;18.50;100.00
17593;BME280;8915;51.760;14.300;2022-09-09T08:17:08;100463.63;;;18.59;100.00
17593;BME280;8915;51.760;14.300;2022-09-09T08:19:36;100463.44;;;18.62;100.00
17593;BME280;8915;51.760;14.300;2022-09-09T08:22:08;100465.69;;;18.68;100.00
17593;BME280;8915;51.760;14.300;2022-09-09T08:24:38;100463.91;;;18.68;100.00
17593;BME280;8915;51.760;14.300;2022-09-09T08:27:04;100471.44;;;18.74;100.00
17593;BME280;8915;51.760;14.300;2022-09-09T08:29:31;100479.81;;;18.81;100.00
17593;BME280;8915;51.760;14.300;2022-09-09T08:31:58;100479.81;;;18.81;100.00
17593;BME280;8915;51.760;14.300;2022-09-09T08:34:26;100490.25;;;18.84;100.00
17593;BME280;8915;51.760;14.300;2022-09-09T08:36:54;100482.13;;;18.87;100.00
17593;BME280;8915;51.760;14.300;2022-09-09T08:39:29;100477.88;;;18.85;100.00
17593;BME280;8915;51.760;14.300;2022-09-09T08:42:18;100473.72;;;18.95;100.00
17593;BME280;8915;51.760;14.300;2022-09-09T08:44:57;100472.28;;;19.04;100.00
17593;BME280;8915;51.760;14.300;2022-09-09T08:47:34;100482.75;;;19.05;100.00
17593;BME280;8915;51.760;14.300;2022-09-09T08:50:18;100477.16;;;19.10;100.00
17593;BME280;8915;51.760;14.300;2022-09-09T08:52:52;100469.69;;;19.17;100.00
17593;BME280;8915;51.760;14.300;2022-09-09T08:55:26;100474.50;;;19.24;100.00
17593;BME280;8915;51.760;14.300;2022-09-09T08:57:57;100486.09;;;19.22;100.00
17593;BME280;8915;51.760;14.300;2022-09-09T09:00:30;100486.94;;;19.22;100.00
17593;BME280;8915;51.760;14.300;2022-09-09T09:03:05;100474.28;;;19.27;100.00
17593;BME280;8915;51.760;14.300;2022-09-09T09:05:40;100474.44;;;19.39;100.00
17593;BME280;8915;51.760;14.300;2022-09-09T09:08:17;100479.41;;;19.43;100.00
17593;BME280;8915;51.760;14.300;2022-09-09T09:10:51;100478.47;;;19.44;100.00
17593;BME280;8915;51.760;14.300;2022-09-09T09:13:26;100475.31;;;19.52;100.00
17593;BME280;8915;51.760;14.300;2022-09-09T09:16:02;100467.28;;;19.54;100.00
17593;BME280;8915;51.760;14.300;2022-09-09T09:18:33;100470.56;;;19.57;100.00
17593;BME280;8915;51.760;14.300;2022-09-09T09:21:07;100481.59;;;19.64;100.00
17593;BME280;8915;51.760;14.300;2022-09-09T09:23:45;100473.84;;;19.75;100.00
17593;BME280;8915;51.760;14.300;2022-09-09T09:26:15;100476.91;;;19.82;100.00
17593;BME280;8915;51.760;14.300;2022-09-09T09:28:42;100473.75;;;19.90;100.00
17593;BME280;8915;51.760;14.300;2022-09-09T09:31:13;100476.69;;;19.98;100.00
17593;BME280;8915;51.760;14.300;2022-09-09T09:33:47;100471.66;;;20.08;100.00
17593;BME280;8915;51.760;14.300;2022-09-09T09:36:15;100480.22;;;20.11;100.00
17593;BME280;8915;51.760;14.300;2022-09-09T09:38:55;100483.19;;;20.19;100.00
17593;BME280;8915;51.760;14.300;2022-09-09T09:41:31;100476.81;;;20.35;100.00
17593;BME280;8915;51.760;14.300;2022-09-09T09:43:58;100486.56;;;20.47;100.00
17593;BME280;8915;51.760;14.300;2022-09-09T09:46:27;100492.63;;;20.49;100.00
17593;BME280;8915;51.760;14.300;2022-09-09T09:49:02;100479.56;;;20.59;100.00
17593;BME280;8915;51.760;14.300;2022-09-09T09:51:32;100489.00;;;20.50;100.00
17593;BME280;8915;51.760;14.300;2022-09-09T09:54:08;100482.66;;;20.40;100.00
17593;BME280;8915;51.760;14.300;2022-09-09T09:56:39;100485.19;;;20.41;100.00
17593;BME280;8915;51.760;14.300;2022-09-09T09:59:20;100487.09;;;20.39;100.00
17593;BME280;8915;51.760;14.300;2022-09-09T10:01:46;100493.13;;;20.54;100.00
17593;BME280;8915;51.760;14.300;2022-09-09T10:04:15;100477.34;;;20.78;100.00
17593;BME280;8915;51.760;14.300;2022-09-09T10:06:43;100475.72;;;20.89;100.00
17593;BME280;8915;51.760;14.300;2022-09-09T10:09:21;100473.53;;;21.07;100.00
17593;BME280;8915;51.760;14.300;2022-09-09T10:11:56;100468.31;;;21.18;100.00
17593;BME280;8915;51.760;14.300;2022-09-09T10:14:30;100475.25;;;21.32;100.00
17593;BME280;8915;51.760;14.300;2022-09-09T10:17:09;100478.69;;;21.45;100.00
17593;BME280;8915;51.760;14.300;2022-09-09T10:19:42;100480.34;;;21.59;100.00
17593;BME280;8915;51.760;14.300;2022-09-09T10:22:22;100483.69;;;21.85;100.00
17593;BME280;8915;51.760;14.300;2022-09-09T10:25:27;100494.00;;;22.01;100.00
17593;BME280;8915;51.760;14.300;2022-09-09T10:28:17;100486.41;;;22.19;100.00
17593;BME280;8915;51.760;14.300;2022-09-09T10:30:59;100480.81;;;22.00;100.00
17593;BME280;8915;51.760;14.300;2022-09-09T10:33:33;100494.66;;;21.81;100.00
17593;BME280;8915;51.760;14.300;2022-09-09T10:36:12;100494.94;;;21.65;100.00
17593;BME280;8915;51.760;14.300;2022-09-09T10:38:41;100497.34;;;21.44;100.00
17593;BME280;8915;51.760;14.300;2022-09-09T10:41:18;100498.25;;;21.31;100.00
17593;BME280;8915;51.760;14.300;2022-09-09T10:44:05;100497.22;;;21.21;100.00
17593;BME280;8915;51.760;14.300;2022-09-09T10:46:45;100499.94;;;21.08;100.00
17593;BME280;8915;51.760;14.300;2022-09-09T10:49:22;100511.41;;;20.96;100.00
17593;BME280;8915;51.760;14.300;2022-09-09T10:52:00;100507.72;;;20.98;100.00
17593;BME280;8915;51.760;14.300;2022-09-09T10:54:40;100498.63;;;20.90;100.00
17593;BME280;8915;51.760;14.300;2022-09-09T10:57:22;100505.44;;;20.81;100.00
17593;BME280;8915;51.760;14.300;2022-09-09T10:59:58;100507.31;;;20.79;100.00
17593;BME280;8915;51.760;14.300;2022-09-09T11:02:31;100514.88;;;20.72;100.00
17593;BME280;8915;51.760;14.300;2022-09-09T11:05:01;100521.56;;;20.65;100.00
17593;BME280;8915;51.760;14.300;2022-09-09T11:07:34;100519.09;;;20.75;100.00
17593;BME280;8915;51.760;14.300;2022-09-09T11:10:12;100512.19;;;20.85;100.00
17593;BME280;8915;51.760;14.300;2022-09-09T11:12:43;100523.00;;;20.95;100.00
17593;BME280;8915;51.760;14.300;2022-09-09T11:15:18;100523.22;;;20.92;100.00
17593;BME280;8915;51.760;14.300;2022-09-09T11:17:49;100523.94;;;20.94;100.00
17593;BME280;8915;51.760;14.300;2022-09-09T11:20:16;100501.53;;;21.11;100.00
17593;BME280;8915;51.760;14.300;2022-09-09T11:22:47;100508.72;;;21.22;100.00
17593;BME280;8915;51.760;14.300;2022-09-09T11:25:16;100507.78;;;21.10;100.00
17593;BME280;8915;51.760;14.300;2022-09-09T11:27:53;100505.88;;;21.12;100.00
17593;BME280;8915;51.760;14.300;2022-09-09T11:30:25;100507.72;;;21.23;100.00
17593;BME280;8915;51.760;14.300;2022-09-09T11:36:02;100508.97;;;21.30;100.00
17593;BME280;8915;51.760;14.300;2022-09-09T11:38:38;100511.56;;;21.18;100.00
17593;BME280;8915;51.760;14.300;2022-09-09T11:41:11;100508.47;;;21.25;100.00
17593;BME280;8915;51.760;14.300;2022-09-09T11:43:41;100506.19;;;21.44;100.00
17593;BME280;8915;51.760;14.300;2022-09-09T11:46:12;100500.91;;;21.31;100.00
17593;BME280;8915;51.760;14.300;2022-09-09T11:48:41;100497.13;;;21.23;100.00
17593;BME280;8915;51.760;14.300;2022-09-09T11:51:12;100498.00;;;21.23;100.00
17593;BME280;8915;51.760;14.300;2022-09-09T11:53:50;100491.44;;;21.16;100.00
17593;BME280;8915;51.760;14.300;2022-09-09T11:56:26;100499.22;;;21.06;100.00
17593;BME280;8915;51.760;14.300;2022-09-09T11:58:56;100494.31;;;21.13;100.00
17593;BME280;8915;51.760;14.300;2022-09-09T12:01:39;100485.38;;;21.51;100.00
17593;BME280;8915;51.760;14.300;2022-09-09T12:04:17;100495.16;;;21.86;93.13
17593;BME280;8915;51.760;14.300;2022-09-09T12:06:46;100492.72;;;22.18;91.01
17593;BME280;8915;51.760;14.300;2022-09-09T12:09:21;100490.56;;;22.35;90.94
17593;BME280;8915;51.760;14.300;2022-09-09T12:11:49;100483.34;;;22.48;91.46
17593;BME280;8915;51.760;14.300;2022-09-09T12:14:23;100493.59;;;22.53;84.36
17593;BME280;8915;51.760;14.300;2022-09-09T12:17:10;100487.44;;;22.52;83.65
17593;BME280;8915;51.760;14.300;2022-09-09T12:19:43;100474.63;;;22.46;86.41
17593;BME280;8915;51.760;14.300;2022-09-09T12:22:17;100486.47;;;22.42;85.11
17593;BME280;8915;51.760;14.300;2022-09-09T12:24:51;100477.44;;;22.44;86.97
17593;BME280;8915;51.760;14.300;2022-09-09T12:27:25;100477.66;;;22.53;84.79
17593;BME280;8915;51.760;14.300;2022-09-09T12:29:58;100481.16;;;22.53;83.38
17593;BME280;8915;51.760;14.300;2022-09-09T12:32:29;100480.44;;;22.51;83.21
17593;BME280;8915;51.760;14.300;2022-09-09T12:34:59;100465.81;;;22.45;83.98
17593;BME280;8915;51.760;14.300;2022-09-09T12:37:29;100460.03;;;22.40;84.26
17593;BME280;8915;51.760;14.300;2022-09-09T12:39:59;100465.34;;;22.29;85.28
17593;BME280;8915;51.760;14.300;2022-09-09T12:42:28;100449.69;;;22.02;84.45
17593;BME280;8915;51.760;14.300;2022-09-09T12:44:56;100450.50;;;21.80;87.75
17593;BME280;8915;51.760;14.300;2022-09-09T12:47:27;100452.97;;;21.59;85.51
17593;BME280;8915;51.760;14.300;2022-09-09T12:49:57;100444.16;;;21.58;89.37
17593;BME280;8915;51.760;14.300;2022-09-09T12:52:27;100444.31;;;21.57;89.06
17593;BME280;8915;51.760;14.300;2022-09-09T12:54:57;100454.16;;;21.54;89.10
17593;BME280;8915;51.760;14.300;2022-09-09T12:57:26;100447.84;;;21.44;92.00
17593;BME280;8915;51.760;14.300;2022-09-09T13:00:05;100447.66;;;21.34;93.93
17593;BME280;8915;51.760;14.300;2022-09-09T13:02:32;100438.91;;;21.21;95.70
17593;BME280;8915;51.760;14.300;2022-09-09T13:05:13;100446.19;;;21.06;94.70
17593;BME280;8915;51.760;14.300;2022-09-09T13:07:41;100445.38;;;20.93;96.79
17593;BME280;8915;51.760;14.300;2022-09-09T13:10:11;100452.03;;;20.74;96.54